sensor_id;sensor_type;location;lat;lon;timestamp;P1;durP1;ratioP1;P2;durP2;ratioP2
17943;SDS011;9097;47.028;15.444;2023-02-04T00:00:10;1.57;;;0.73;;
17943;SDS011;9097;47.028;15.444;2023-02-04T00:03:14;3.03;;;0.80;;
17943;SDS011;9097;47.028;15.444;2023-02-04T00:06:17;1.57;;;0.90;;
17943;SDS011;9097;47.028;15.444;2023-02-04T00:09:19;3.17;;;0.90;;
17943;SDS011;9097;47.028;15.444;2023-02-04T00:12:22;1.83;;;0.50;;
17943;SDS011;9097;47.028;15.444;2023-02-04T00:15:25;2.23;;;1.20;;
17943;SDS011;9097;47.028;15.444;2023-02-04T00:18:28;2.40;;;0.97;;
17943;SDS011;9097;47.028;15.444;2023-02-04T00:21:31;1.80;;;0.83;;
17943;SDS011;9097;47.028;15.444;2023-02-04T00:24:33;1.60;;;0.67;;
17943;SDS011;9097;47.028;15.444;2023-02-04T00:27:36;2.03;;;0.63;;
17943;SDS011;9097;47.028;15.444;2023-02-04T00:30:39;5.40;;;1.10;;
17943;SDS011;9097;47.028;15.444;2023-02-04T00:33:42;1.80;;;1.60;;
17943;SDS011;9097;47.028;15.444;2023-02-04T00:36:45;2.20;;;0.80;;
17943;SDS011;9097;47.028;15.444;2023-02-04T00:39:47;1.83;;;0.90;;
17943;SDS011;9097;47.028;15.444;2023-02-04T00:42:49;2.37;;;1.00;;
17943;SDS011;9097;47.028;15.444;2023-02-04T00:45:52;2.13;;;0.67;;
17943;SDS011;9097;47.028;15.444;2023-02-04T00:48:55;1.83;;;1.40;;
17943;SDS011;9097;47.028;15.444;2023-02-04T00:51:58;4.13;;;0.57;;
17943;SDS011;9097;47.028;15.444;2023-02-04T00:55:00;5.23;;;1.83;;
17943;SDS011;9097;47.028;15.444;2023-02-04T00:58:03;0.97;;;0.47;;
17943;SDS011;9097;47.028;15.444;2023-02-04T01:01:05;0.77;;;0.60;;
17943;SDS011;9097;47.028;15.444;2023-02-04T01:04:09;0.20;;;0.20;;
17943;SDS011;9097;47.028;15.444;2023-02-04T01:07:11;0.40;;;0.40;;
17943;SDS011;9097;47.028;15.444;2023-02-04T01:10:14;2.13;;;0.53;;
17943;SDS011;9097;47.028;15.444;2023-02-04T01:13:17;0.80;;;0.63;;
17943;SDS011;9097;47.028;15.444;2023-02-04T01:16:19;0.30;;;0.30;;
17943;SDS011;9097;47.028;15.444;2023-02-04T01:19:24;0.20;;;0.20;;
17943;SDS011;9097;47.028;15.444;2023-02-04T01:22:27;0.33;;;0.33;;
17943;SDS011;9097;47.028;15.444;2023-02-04T01:25:29;0.27;;;0.27;;
17943;SDS011;9097;47.028;15.444;2023-02-04T01:28:32;0.70;;;0.23;;
17943;SDS011;9097;47.028;15.444;2023-02-04T01:31:34;1.43;;;0.50;;
17943;SDS011;9097;47.028;15.444;2023-02-04T01:34:38;1.80;;;0.73;;
17943;SDS011;9097;47.028;15.444;2023-02-04T01:37:40;1.00;;;0.80;;
17943;SDS011;9097;47.028;15.444;2023-02-04T01:40:42;0.50;;;0.30;;
17943;SDS011;9097;47.028;15.444;2023-02-04T01:43:45;0.10;;;0.10;;
17943;SDS011;9097;47.028;15.444;2023-02-04T01:46:48;0.00;;;0.00;;
17943;SDS011;9097;47.028;15.444;2023-02-04T01:49:52;0.10;;;0.10;;
17943;SDS011;9097;47.028;15.444;2023-02-04T01:52:55;1.67;;;0.20;;
17943;SDS011;9097;47.028;15.444;2023-02-04T01:55:58;0.03;;;0.00;;
17943;SDS011;9097;47.028;15.444;2023-02-04T01:59:00;2.03;;;0.40;;
17943;SDS011;9097;47.028;15.444;2023-02-04T02:02:35;0.10;;;0.10;;
17943;SDS011;9097;47.028;15.444;2023-02-04T02:05:43;0.07;;;0.03;;
17943;SDS011;9097;47.028;15.444;2023-02-04T02:08:48;0.00;;;0.00;;
17943;SDS011;9097;47.028;15.444;2023-02-04T02:11:52;0.47;;;0.27;;
17943;SDS011;9097;47.028;15.444;2023-02-04T02:14:54;0.40;;;0.10;;
17943;SDS011;9097;47.028;15.444;2023-02-04T02:17:57;0.83;;;0.10;;
17943;SDS011;9097;47.028;15.444;2023-02-04T02:21:04;0.00;;;0.00;;
17943;SDS011;9097;47.028;15.444;2023-02-04T02:24:27;0.00;;;0.00;;
17943;SDS011;9097;47.028;15.444;2023-02-04T02:27:31;0.00;;;0.00;;
17943;SDS011;9097;47.028;15.444;2023-02-04T02:30:34;0.00;;;0.00;;
17943;SDS011;9097;47.028;15.444;2023-02-04T02:33:36;0.00;;;0.00;;
17943;SDS011;9097;47.028;15.444;2023-02-04T02:36:38;0.00;;;0.00;;
17943;SDS011;9097;47.028;15.444;2023-02-04T02:39:43;0.00;;;0.00;;
17943;SDS011;9097;47.028;15.444;2023-02-04T02:42:47;0.10;;;0.00;;
17943;SDS011;9097;47.028;15.444;2023-02-04T02:45:51;0.13;;;0.13;;
17943;SDS011;9097;47.028;15.444;2023-02-04T02:48:55;0.73;;;0.20;;
17943;SDS011;9097;47.028;15.444;2023-02-04T02:51:57;0.20;;;0.20;;
17943;SDS011;9097;47.028;15.444;2023-02-04T02:55:01;0.40;;;0.20;;
17943;SDS011;9097;47.028;15.444;2023-02-04T02:58:04;0.00;;;0.00;;
17943;SDS011;9097;47.028;15.444;2023-02-04T03:01:11;0.20;;;0.10;;
17943;SDS011;9097;47.028;15.444;2023-02-04T03:04:14;0.13;;;0.13;;
17943;SDS011;9097;47.028;15.444;2023-02-04T03:07:19;0.10;;;0.10;;
17943;SDS011;9097;47.028;15.444;2023-02-04T03:10:25;0.00;;;0.00;;
17943;SDS011;9097;47.028;15.444;2023-02-04T03:13:27;0.00;;;0.00;;
17943;SDS011;9097;47.028;15.444;2023-02-04T03:16:31;0.17;;;0.17;;
17943;SDS011;9097;47.028;15.444;2023-02-04T03:19:36;0.13;;;0.13;;
17943;SDS011;9097;47.028;15.444;2023-02-04T03:22:39;0.00;;;0.00;;
17943;SDS011;9097;47.028;15.444;2023-02-04T03:25:43;0.00;;;0.00;;
17943;SDS011;9097;47.028;15.444;2023-02-04T03:28:46;0.00;;;0.00;;
17943;SDS011;9097;47.028;15.444;2023-02-04T03:31:49;0.00;;;0.00;;
17943;SDS011;9097;47.028;15.444;2023-02-04T03:34:52;0.00;;;0.00;;
17943;SDS011;9097;47.028;15.444;2023-02-04T03:37:54;0.00;;;0.00;;
17943;SDS011;9097;47.028;15.444;2023-02-04T03:40:58;0.00;;;0.00;;
17943;SDS011;9097;47.028;15.444;2023-02-04T03:44:00;0.00;;;0.00;;
17943;SDS011;9097;47.028;15.444;2023-02-04T03:47:03;0.00;;;0.00;;
17943;SDS011;9097;47.028;15.444;2023-02-04T03:50:05;0.00;;;0.00;;
17943;SDS011;9097;47.028;15.444;2023-02-04T03:53:10;0.00;;;0.00;;
17943;SDS011;9097;47.028;15.444;2023-02-04T03:56:14;0.00;;;0.00;;
17943;SDS011;9097;47.028;15.444;2023-02-04T03:59:16;0.00;;;0.00;;
17943;SDS011;9097;47.028;15.444;2023-02-04T04:02:18;0.00;;;0.00;;
17943;SDS011;9097;47.028;15.444;2023-02-04T04:05:21;0.00;;;0.00;;
17943;SDS011;9097;47.028;15.444;2023-02-04T04:08:23;0.00;;;0.00;;
17943;SDS011;9097;47.028;15.444;2023-02-04T04:11:27;0.00;;;0.00;;
17943;SDS011;9097;47.028;15.444;2023-02-04T04:14:29;0.00;;;0.00;;
17943;SDS011;9097;47.028;15.444;2023-02-04T04:17:32;0.00;;;0.00;;
17943;SDS011;9097;47.028;15.444;2023-02-04T04:20:35;0.00;;;0.00;;
17943;SDS011;9097;47.028;15.444;2023-02-04T04:23:37;0.00;;;0.00;;
17943;SDS011;9097;47.028;15.444;2023-02-04T04:26:41;0.00;;;0.00;;
17943;SDS011;9097;47.028;15.444;2023-02-04T04:29:43;0.00;;;0.00;;
17943;SDS011;9097;47.028;15.444;2023-02-04T04:32:46;0.00;;;0.00;;
17943;SDS011;9097;47.028;15.444;2023-02-04T04:35:49;0.00;;;0.00;;
17943;SDS011;9097;47.028;15.444;2023-02-04T04:38:51;0.00;;;0.00;;
17943;SDS011;9097;47.028;15.444;2023-02-04T04:41:55;0.00;;;0.00;;
17943;SDS011;9097;47.028;15.444;2023-02-04T04:44:58;0.00;;;0.00;;
17943;SDS011;9097;47.028;15.444;2023-02-04T04:48:00;0.00;;;0.00;;
17943;SDS011;9097;47.028;15.444;2023-02-04T04:51:03;0.00;;;0.00;;
17943;SDS011;9097;47.028;15.444;2023-02-04T04:54:06;0.07;;;0.07;;
17943;SDS011;9097;47.028;15.444;2023-02-04T04:57:10;0.00;;;0.00;;
17943;SDS011;9097;47.028;15.444;2023-02-04T05:00:14;0.00;;;0.00;;
17943;SDS011;9097;47.028;15.444;2023-02-04T05:03:17;0.00;;;0.00;;
17943;SDS011;9097;47.028;15.444;2023-02-04T05:06:20;0.00;;;0.00;;
17943;SDS011;9097;47.028;15.444;2023-02-04T05:09:24;0.00;;;0.00;;
17943;SDS011;9097;47.028;15.444;2023-02-04T05:12:28;0.00;;;0.00;;
17943;SDS011;9097;47.028;15.444;2023-02-04T05:15:31;0.00;;;0.00;;
17943;SDS011;9097;47.028;15.444;2023-02-04T05:18:33;0.00;;;0.00;;
17943;SDS011;9097;47.028;15.444;2023-02-04T05:21:36;0.00;;;0.00;;
17943;SDS011;9097;47.028;15.444;2023-02-04T05:24:38;0.00;;;0.00;;
17943;SDS011;9097;47.028;15.444;2023-02-04T05:27:42;0.00;;;0.00;;
17943;SDS011;9097;47.028;15.444;2023-02-04T05:30:45;0.00;;;0.00;;
17943;SDS011;9097;47.028;15.444;2023-02-04T05:33:48;0.00;;;0.00;;
17943;SDS011;9097;47.028;15.444;2023-02-04T05:36:51;0.00;;;0.00;;
17943;SDS011;9097;47.028;15.444;2023-02-04T05:39:53;0.00;;;0.00;;
17943;SDS011;9097;47.028;15.444;2023-02-04T05:42:57;0.30;;;0.00;;
17943;SDS011;9097;47.028;15.444;2023-02-04T05:46:00;0.00;;;0.00;;
17943;SDS011;9097;47.028;15.444;2023-02-04T05:49:03;0.00;;;0.00;;
17943;SDS011;9097;47.028;15.444;2023-02-04T05:52:07;0.00;;;0.00;;
17943;SDS011;9097;47.028;15.444;2023-02-04T05:55:10;0.00;;;0.00;;
17943;SDS011;9097;47.028;15.444;2023-02-04T05:58:14;0.10;;;0.00;;
17943;SDS011;9097;47.028;15.444;2023-02-04T06:01:16;0.00;;;0.00;;
17943;SDS011;9097;47.028;15.444;2023-02-04T06:04:19;0.00;;;0.00;;
17943;SDS011;9097;47.028;15.444;2023-02-04T06:07:21;0.07;;;0.00;;
17943;SDS011;9097;47.028;15.444;2023-02-04T06:10:24;0.00;;;0.00;;
17943;SDS011;9097;47.028;15.444;2023-02-04T06:13:28;0.00;;;0.00;;
17943;SDS011;9097;47.028;15.444;2023-02-04T06:16:30;0.00;;;0.00;;
17943;SDS011;9097;47.028;15.444;2023-02-04T06:19:33;0.00;;;0.00;;
17943;SDS011;9097;47.028;15.444;2023-02-04T06:22:35;0.00;;;0.00;;
17943;SDS011;9097;47.028;15.444;2023-02-04T06:25:38;0.00;;;0.00;;
17943;SDS011;9097;47.028;15.444;2023-02-04T06:28:42;0.00;;;0.00;;
17943;SDS011;9097;47.028;15.444;2023-02-04T06:31:44;0.00;;;0.00;;
17943;SDS011;9097;47.028;15.444;2023-02-04T06:34:48;0.00;;;0.00;;
17943;SDS011;9097;47.028;15.444;2023-02-04T06:37:51;0.00;;;0.00;;
17943;SDS011;9097;47.028;15.444;2023-02-04T06:40:54;0.00;;;0.00;;
17943;SDS011;9097;47.028;15.444;2023-02-04T06:43:58;0.10;;;0.03;;
17943;SDS011;9097;47.028;15.444;2023-02-04T06:47:00;0.00;;;0.00;;
17943;SDS011;9097;47.028;15.444;2023-02-04T06:50:03;0.00;;;0.00;;
17943;SDS011;9097;47.028;15.444;2023-02-04T06:53:05;0.00;;;0.00;;
17943;SDS011;9097;47.028;15.444;2023-02-04T06:56:08;0.00;;;0.00;;
17943;SDS011;9097;47.028;15.444;2023-02-04T06:59:12;0.00;;;0.00;;
17943;SDS011;9097;47.028;15.444;2023-02-04T07:02:15;0.03;;;0.03;;
17943;SDS011;9097;47.028;15.444;2023-02-04T07:05:17;0.20;;;0.10;;
17943;SDS011;9097;47.028;15.444;2023-02-04T07:08:20;0.00;;;0.00;;
17943;SDS011;9097;47.028;15.444;2023-02-04T07:11:23;0.40;;;0.00;;
17943;SDS011;9097;47.028;15.444;2023-02-04T07:14:27;0.20;;;0.10;;
17943;SDS011;9097;47.028;15.444;2023-02-04T07:17:29;0.00;;;0.00;;
17943;SDS011;9097;47.028;15.444;2023-02-04T07:20:32;0.00;;;0.00;;
17943;SDS011;9097;47.028;15.444;2023-02-04T07:23:34;0.93;;;0.27;;
17943;SDS011;9097;47.028;15.444;2023-02-04T07:26:37;9.00;;;0.37;;
17943;SDS011;9097;47.028;15.444;2023-02-04T07:29:41;0.00;;;0.00;;
17943;SDS011;9097;47.028;15.444;2023-02-04T07:32:44;0.07;;;0.07;;
17943;SDS011;9097;47.028;15.444;2023-02-04T07:35:46;3.60;;;0.20;;
17943;SDS011;9097;47.028;15.444;2023-02-04T07:38:49;0.10;;;0.10;;
17943;SDS011;9097;47.028;15.444;2023-02-04T07:41:52;0.27;;;0.10;;
17943;SDS011;9097;47.028;15.444;2023-02-04T07:44:55;0.27;;;0.03;;
17943;SDS011;9097;47.028;15.444;2023-02-04T07:47:58;0.10;;;0.00;;
17943;SDS011;9097;47.028;15.444;2023-02-04T07:51:01;0.00;;;0.00;;
17943;SDS011;9097;47.028;15.444;2023-02-04T07:54:03;0.00;;;0.00;;
17943;SDS011;9097;47.028;15.444;2023-02-04T07:57:06;0.07;;;0.07;;
17943;SDS011;9097;47.028;15.444;2023-02-04T08:00:11;0.20;;;0.00;;
17943;SDS011;9097;47.028;15.444;2023-02-04T08:03:15;0.20;;;0.20;;
17943;SDS011;9097;47.028;15.444;2023-02-04T08:06:18;0.00;;;0.00;;
17943;SDS011;9097;47.028;15.444;2023-02-04T08:09:20;0.50;;;0.10;;
17943;SDS011;9097;47.028;15.444;2023-02-04T08:12:23;0.00;;;0.00;;
17943;SDS011;9097;47.028;15.444;2023-02-04T08:15:28;0.00;;;0.00;;
17943;SDS011;9097;47.028;15.444;2023-02-04T08:18:30;0.10;;;0.10;;
17943;SDS011;9097;47.028;15.444;2023-02-04T08:21:33;0.00;;;0.00;;
17943;SDS011;9097;47.028;15.444;2023-02-04T08:24:36;0.00;;;0.00;;
17943;SDS011;9097;47.028;15.444;2023-02-04T08:27:38;0.00;;;0.00;;
17943;SDS011;9097;47.028;15.444;2023-02-04T08:30:43;0.27;;;0.20;;
17943;SDS011;9097;47.028;15.444;2023-02-04T08:33:46;0.23;;;0.10;;
17943;SDS011;9097;47.028;15.444;2023-02-04T08:36:49;0.13;;;0.13;;
17943;SDS011;9097;47.028;15.444;2023-02-04T08:39:53;1.03;;;0.40;;
17943;SDS011;9097;47.028;15.444;2023-02-04T08:42:56;0.40;;;0.10;;
17943;SDS011;9097;47.028;15.444;2023-02-04T08:46:00;0.20;;;0.10;;
17943;SDS011;9097;47.028;15.444;2023-02-04T08:49:03;0.10;;;0.10;;
17943;SDS011;9097;47.028;15.444;2023-02-04T08:52:05;1.50;;;0.10;;
17943;SDS011;9097;47.028;15.444;2023-02-04T08:55:07;1.37;;;0.30;;
17943;SDS011;9097;47.028;15.444;2023-02-04T08:58:10;0.00;;;0.00;;
17943;SDS011;9097;47.028;15.444;2023-02-04T09:01:14;0.20;;;0.10;;
17943;SDS011;9097;47.028;15.444;2023-02-04T09:04:20;0.20;;;0.17;;
17943;SDS011;9097;47.028;15.444;2023-02-04T09:07:23;0.10;;;0.10;;
17943;SDS011;9097;47.028;15.444;2023-02-04T09:10:26;0.00;;;0.00;;
17943;SDS011;9097;47.028;15.444;2023-02-04T09:13:29;0.20;;;0.10;;
17943;SDS011;9097;47.028;15.444;2023-02-04T09:16:33;0.00;;;0.00;;
17943;SDS011;9097;47.028;15.444;2023-02-04T09:19:36;1.75;;;0.20;;
17943;SDS011;9097;47.028;15.444;2023-02-04T09:22:38;0.10;;;0.10;;
17943;SDS011;9097;47.028;15.444;2023-02-04T09:25:42;0.15;;;0.10;;
17943;SDS011;9097;47.028;15.444;2023-02-04T09:28:45;2.17;;;0.10;;
17943;SDS011;9097;47.028;15.444;2023-02-04T09:31:49;0.80;;;0.10;;
17943;SDS011;9097;47.028;15.444;2023-02-04T09:34:52;0.00;;;0.00;;
17943;SDS011;9097;47.028;15.444;2023-02-04T09:37:54;0.15;;;0.10;;
17943;SDS011;9097;47.028;15.444;2023-02-04T09:41:00;1.95;;;0.08;;
17943;SDS011;9097;47.028;15.444;2023-02-04T09:44:03;0.00;;;0.00;;
17943;SDS011;9097;47.028;15.444;2023-02-04T09:47:09;0.20;;;0.20;;
17943;SDS011;9097;47.028;15.444;2023-02-04T09:50:15;0.10;;;0.10;;
17943;SDS011;9097;47.028;15.444;2023-02-04T09:53:21;0.82;;;0.00;;
17943;SDS011;9097;47.028;15.444;2023-02-04T09:56:24;0.00;;;0.00;;
17943;SDS011;9097;47.028;15.444;2023-02-04T09:59:26;0.10;;;0.10;;
17943;SDS011;9097;47.028;15.444;2023-02-04T10:02:34;0.10;;;0.10;;
17943;SDS011;9097;47.028;15.444;2023-02-04T10:05:37;0.17;;;0.10;;
17943;SDS011;9097;47.028;15.444;2023-02-04T10:08:45;0.17;;;0.15;;
17943;SDS011;9097;47.028;15.444;2023-02-04T10:11:51;0.10;;;0.00;;
17943;SDS011;9097;47.028;15.444;2023-02-04T10:14:55;0.10;;;0.10;;
17943;SDS011;9097;47.028;15.444;2023-02-04T10:18:02;0.13;;;0.10;;
17943;SDS011;9097;47.028;15.444;2023-02-04T10:21:17;0.35;;;0.17;;
17943;SDS011;9097;47.028;15.444;2023-02-04T10:24:23;0.40;;;0.20;;
17943;SDS011;9097;47.028;15.444;2023-02-04T10:27:31;1.25;;;0.10;;
17943;SDS011;9097;47.028;15.444;2023-02-04T10:30:38;1.23;;;0.30;;
17943;SDS011;9097;47.028;15.444;2023-02-04T10:33:44;0.20;;;0.10;;
17943;SDS011;9097;47.028;15.444;2023-02-04T10:36:50;0.00;;;0.00;;
17943;SDS011;9097;47.028;15.444;2023-02-04T10:39:56;0.10;;;0.10;;
17943;SDS011;9097;47.028;15.444;2023-02-04T10:43:05;0.00;;;0.00;;
17943;SDS011;9097;47.028;15.444;2023-02-04T10:46:12;0.10;;;0.00;;
17943;SDS011;9097;47.028;15.444;2023-02-04T10:49:24;0.10;;;0.10;;
17943;SDS011;9097;47.028;15.444;2023-02-04T10:52:29;0.33;;;0.00;;
17943;SDS011;9097;47.028;15.444;2023-02-04T10:55:38;0.10;;;0.10;;
17943;SDS011;9097;47.028;15.444;2023-02-04T10:58:46;0.20;;;0.20;;
17943;SDS011;9097;47.028;15.444;2023-02-04T11:01:49;0.00;;;0.00;;
17943;SDS011;9097;47.028;15.444;2023-02-04T11:04:54;0.50;;;0.10;;
17943;SDS011;9097;47.028;15.444;2023-02-04T11:07:58;0.20;;;0.20;;
17943;SDS011;9097;47.028;15.444;2023-02-04T11:11:03;0.10;;;0.10;;
17943;SDS011;9097;47.028;15.444;2023-02-04T11:14:20;0.50;;;0.17;;
17943;SDS011;9097;47.028;15.444;2023-02-04T11:17:31;0.10;;;0.10;;
17943;SDS011;9097;47.028;15.444;2023-02-04T11:20:36;0.20;;;0.07;;
17943;SDS011;9097;47.028;15.444;2023-02-04T11:23:42;0.13;;;0.00;;
17943;SDS011;9097;47.028;15.444;2023-02-04T11:26:47;0.10;;;0.10;;
17943;SDS011;9097;47.028;15.444;2023-02-04T11:30:05;0.10;;;0.10;;
17943;SDS011;9097;47.028;15.444;2023-02-04T11:33:22;0.00;;;0.00;;
17943;SDS011;9097;47.028;15.444;2023-02-04T11:36:28;1.33;;;0.33;;
17943;SDS011;9097;47.028;15.444;2023-02-04T11:39:32;0.63;;;0.30;;
17943;SDS011;9097;47.028;15.444;2023-02-04T11:42:37;0.63;;;0.30;;
17943;SDS011;9097;47.028;15.444;2023-02-04T11:45:41;0.83;;;0.17;;
17943;SDS011;9097;47.028;15.444;2023-02-04T11:48:46;0.00;;;0.00;;
17943;SDS011;9097;47.028;15.444;2023-02-04T11:52:03;0.10;;;0.03;;
17943;SDS011;9097;47.028;15.444;2023-02-04T11:55:09;0.20;;;0.20;;
17943;SDS011;9097;47.028;15.444;2023-02-04T11:58:13;0.40;;;0.07;;
17943;SDS011;9097;47.028;15.444;2023-02-04T12:01:16;0.03;;;0.03;;
17943;SDS011;9097;47.028;15.444;2023-02-04T12:04:21;0.37;;;0.20;;
17943;SDS011;9097;47.028;15.444;2023-02-04T12:07:26;0.20;;;0.00;;
17943;SDS011;9097;47.028;15.444;2023-02-04T12:10:32;0.00;;;0.00;;
17943;SDS011;9097;47.028;15.444;2023-02-04T12:13:44;0.20;;;0.10;;
17943;SDS011;9097;47.028;15.444;2023-02-04T12:16:49;0.13;;;0.13;;
17943;SDS011;9097;47.028;15.444;2023-02-04T12:19:57;0.10;;;0.10;;
17943;SDS011;9097;47.028;15.444;2023-02-04T12:23:01;0.10;;;0.10;;
17943;SDS011;9097;47.028;15.444;2023-02-04T12:26:05;0.00;;;0.00;;
17943;SDS011;9097;47.028;15.444;2023-02-04T12:29:11;0.10;;;0.00;;
17943;SDS011;9097;47.028;15.444;2023-02-04T12:32:13;0.17;;;0.10;;
17943;SDS011;9097;47.028;15.444;2023-02-04T12:35:18;0.10;;;0.10;;
17943;SDS011;9097;47.028;15.444;2023-02-04T12:41:50;0.17;;;0.10;;
17943;SDS011;9097;47.028;15.444;2023-02-04T12:44:53;0.20;;;0.20;;
17943;SDS011;9097;47.028;15.444;2023-02-04T12:47:57;0.27;;;0.27;;
17943;SDS011;9097;47.028;15.444;2023-02-04T12:51:00;0.10;;;0.10;;
17943;SDS011;9097;47.028;15.444;2023-02-04T12:54:04;0.20;;;0.20;;
17943;SDS011;9097;47.028;15.444;2023-02-04T12:57:07;0.10;;;0.10;;
17943;SDS011;9097;47.028;15.444;2023-02-04T13:00:11;0.30;;;0.20;;
17943;SDS011;9097;47.028;15.444;2023-02-04T13:03:22;0.27;;;0.10;;
17943;SDS011;9097;47.028;15.444;2023-02-04T13:06:36;0.10;;;0.10;;
17943;SDS011;9097;47.028;15.444;2023-02-04T13:09:41;0.30;;;0.20;;
17943;SDS011;9097;47.028;15.444;2023-02-04T13:12:44;0.13;;;0.13;;
17943;SDS011;9097;47.028;15.444;2023-02-04T13:15:49;0.20;;;0.20;;
17943;SDS011;9097;47.028;15.444;2023-02-04T13:18:59;0.10;;;0.10;;
17943;SDS011;9097;47.028;15.444;2023-02-04T13:22:02;0.03;;;0.00;;
17943;SDS011;9097;47.028;15.444;2023-02-04T13:25:07;0.50;;;0.10;;
17943;SDS011;9097;47.028;15.444;2023-02-04T13:28:14;0.20;;;0.10;;
17943;SDS011;9097;47.028;15.444;2023-02-04T13:31:17;0.20;;;0.10;;
17943;SDS011;9097;47.028;15.444;2023-02-04T13:34:19;0.20;;;0.20;;
17943;SDS011;9097;47.028;15.444;2023-02-04T13:37:21;0.20;;;0.20;;
17943;SDS011;9097;47.028;15.444;2023-02-04T13:40:25;0.13;;;0.07;;
17943;SDS011;9097;47.028;15.444;2023-02-04T13:43:27;0.20;;;0.20;;
17943;SDS011;9097;47.028;15.444;2023-02-04T13:46:30;0.13;;;0.10;;
17943;SDS011;9097;47.028;15.444;2023-02-04T13:49:33;0.40;;;0.30;;
17943;SDS011;9097;47.028;15.444;2023-02-04T13:52:36;0.10;;;0.10;;
17943;SDS011;9097;47.028;15.444;2023-02-04T13:55:41;0.10;;;0.00;;
17943;SDS011;9097;47.028;15.444;2023-02-04T13:58:43;0.43;;;0.13;;
17943;SDS011;9097;47.028;15.444;2023-02-04T14:01:46;0.10;;;0.10;;
17943;SDS011;9097;47.028;15.444;2023-02-04T14:04:48;0.10;;;0.10;;
17943;SDS011;9097;47.028;15.444;2023-02-04T14:07:51;0.10;;;0.10;;
17943;SDS011;9097;47.028;15.444;2023-02-04T14:10:55;0.10;;;0.00;;
17943;SDS011;9097;47.028;15.444;2023-02-04T14:13:57;0.40;;;0.20;;
17943;SDS011;9097;47.028;15.444;2023-02-04T14:17:00;0.50;;;0.40;;
17943;SDS011;9097;47.028;15.444;2023-02-04T14:20:02;1.03;;;0.40;;
17943;SDS011;9097;47.028;15.444;2023-02-04T14:23:07;0.20;;;0.20;;
17943;SDS011;9097;47.028;15.444;2023-02-04T14:26:12;0.20;;;0.10;;
17943;SDS011;9097;47.028;15.444;2023-02-04T14:29:16;0.33;;;0.20;;
17943;SDS011;9097;47.028;15.444;2023-02-04T14:32:20;0.00;;;0.00;;
17943;SDS011;9097;47.028;15.444;2023-02-04T14:35:25;0.40;;;0.20;;
17943;SDS011;9097;47.028;15.444;2023-02-04T14:38:34;0.20;;;0.20;;
17943;SDS011;9097;47.028;15.444;2023-02-04T14:41:40;0.07;;;0.03;;
17943;SDS011;9097;47.028;15.444;2023-02-04T14:44:43;1.70;;;0.20;;
17943;SDS011;9097;47.028;15.444;2023-02-04T14:47:47;0.13;;;0.13;;
17943;SDS011;9097;47.028;15.444;2023-02-04T14:50:52;0.37;;;0.20;;
17943;SDS011;9097;47.028;15.444;2023-02-04T14:53:55;0.20;;;0.17;;
17943;SDS011;9097;47.028;15.444;2023-02-04T14:57:08;0.13;;;0.13;;
17943;SDS011;9097;47.028;15.444;2023-02-04T15:00:11;0.17;;;0.00;;
17943;SDS011;9097;47.028;15.444;2023-02-04T15:03:15;0.20;;;0.20;;
17943;SDS011;9097;47.028;15.444;2023-02-04T15:06:17;0.30;;;0.30;;
17943;SDS011;9097;47.028;15.444;2023-02-04T15:09:21;0.40;;;0.20;;
17943;SDS011;9097;47.028;15.444;2023-02-04T15:12:26;0.30;;;0.30;;
17943;SDS011;9097;47.028;15.444;2023-02-04T15:15:29;2.10;;;0.53;;
17943;SDS011;9097;47.028;15.444;2023-02-04T15:18:33;0.47;;;0.20;;
17943;SDS011;9097;47.028;15.444;2023-02-04T15:21:36;0.60;;;0.37;;
17943;SDS011;9097;47.028;15.444;2023-02-04T15:24:38;0.30;;;0.20;;
17943;SDS011;9097;47.028;15.444;2023-02-04T15:27:43;1.33;;;0.40;;
17943;SDS011;9097;47.028;15.444;2023-02-04T15:30:45;0.27;;;0.27;;
17943;SDS011;9097;47.028;15.444;2023-02-04T15:33:47;0.67;;;0.40;;
17943;SDS011;9097;47.028;15.444;2023-02-04T15:36:50;0.10;;;0.10;;
17943;SDS011;9097;47.028;15.444;2023-02-04T15:39:52;1.40;;;0.23;;
17943;SDS011;9097;47.028;15.444;2023-02-04T15:42:56;0.10;;;0.10;;
17943;SDS011;9097;47.028;15.444;2023-02-04T15:45:59;1.07;;;0.40;;
17943;SDS011;9097;47.028;15.444;2023-02-04T15:49:01;0.33;;;0.30;;
17943;SDS011;9097;47.028;15.444;2023-02-04T15:52:04;0.20;;;0.20;;
17943;SDS011;9097;47.028;15.444;2023-02-04T15:55:06;0.30;;;0.23;;
17943;SDS011;9097;47.028;15.444;2023-02-04T15:58:10;0.37;;;0.30;;
17943;SDS011;9097;47.028;15.444;2023-02-04T16:01:13;0.47;;;0.40;;
17943;SDS011;9097;47.028;15.444;2023-02-04T16:04:16;0.20;;;0.20;;
17943;SDS011;9097;47.028;15.444;2023-02-04T16:07:18;0.30;;;0.30;;
17943;SDS011;9097;47.028;15.444;2023-02-04T16:10:21;1.17;;;0.30;;
17943;SDS011;9097;47.028;15.444;2023-02-04T16:13:25;0.10;;;0.10;;
17943;SDS011;9097;47.028;15.444;2023-02-04T16:16:27;0.77;;;0.33;;
17943;SDS011;9097;47.028;15.444;2023-02-04T16:19:30;0.10;;;0.07;;
17943;SDS011;9097;47.028;15.444;2023-02-04T16:22:32;0.13;;;0.13;;
17943;SDS011;9097;47.028;15.444;2023-02-04T16:25:35;0.10;;;0.10;;
17943;SDS011;9097;47.028;15.444;2023-02-04T16:28:39;0.20;;;0.20;;
17943;SDS011;9097;47.028;15.444;2023-02-04T16:31:41;0.20;;;0.20;;
17943;SDS011;9097;47.028;15.444;2023-02-04T16:34:43;0.13;;;0.07;;
17943;SDS011;9097;47.028;15.444;2023-02-04T16:37:47;0.57;;;0.40;;
17943;SDS011;9097;47.028;15.444;2023-02-04T16:40:49;0.33;;;0.23;;
17943;SDS011;9097;47.028;15.444;2023-02-04T16:43:54;0.43;;;0.20;;
17943;SDS011;9097;47.028;15.444;2023-02-04T16:46:57;0.47;;;0.40;;
17943;SDS011;9097;47.028;15.444;2023-02-04T16:49:59;0.73;;;0.20;;
17943;SDS011;9097;47.028;15.444;2023-02-04T16:53:01;5.10;;;0.40;;
17943;SDS011;9097;47.028;15.444;2023-02-04T16:56:04;0.43;;;0.37;;
17943;SDS011;9097;47.028;15.444;2023-02-04T16:59:11;0.20;;;0.20;;
17943;SDS011;9097;47.028;15.444;2023-02-04T17:02:14;0.47;;;0.23;;
17943;SDS011;9097;47.028;15.444;2023-02-04T17:05:16;0.87;;;0.33;;
17943;SDS011;9097;47.028;15.444;2023-02-04T17:08:19;0.10;;;0.10;;
17943;SDS011;9097;47.028;15.444;2023-02-04T17:11:21;1.33;;;0.50;;
17943;SDS011;9097;47.028;15.444;2023-02-04T17:14:32;0.20;;;0.20;;
17943;SDS011;9097;47.028;15.444;2023-02-04T17:17:34;0.33;;;0.33;;
17943;SDS011;9097;47.028;15.444;2023-02-04T17:20:37;2.37;;;0.40;;
17943;SDS011;9097;47.028;15.444;2023-02-04T17:23:40;0.30;;;0.27;;
17943;SDS011;9097;47.028;15.444;2023-02-04T17:26:42;0.67;;;0.30;;
17943;SDS011;9097;47.028;15.444;2023-02-04T17:29:46;0.37;;;0.30;;
17943;SDS011;9097;47.028;15.444;2023-02-04T17:32:49;4.87;;;0.87;;
17943;SDS011;9097;47.028;15.444;2023-02-04T17:35:52;0.73;;;0.60;;
17943;SDS011;9097;47.028;15.444;2023-02-04T17:38:55;0.20;;;0.10;;
17943;SDS011;9097;47.028;15.444;2023-02-04T17:41:58;0.10;;;0.10;;
17943;SDS011;9097;47.028;15.444;2023-02-04T17:45:02;1.10;;;0.37;;
17943;SDS011;9097;47.028;15.444;2023-02-04T17:48:04;1.20;;;0.30;;
17943;SDS011;9097;47.028;15.444;2023-02-04T17:51:07;1.23;;;0.43;;
17943;SDS011;9097;47.028;15.444;2023-02-04T17:54:10;0.13;;;0.13;;
17943;SDS011;9097;47.028;15.444;2023-02-04T17:57:16;0.47;;;0.40;;
17943;SDS011;9097;47.028;15.444;2023-02-04T18:00:24;1.43;;;1.00;;
17943;SDS011;9097;47.028;15.444;2023-02-04T18:03:30;0.90;;;0.60;;
17943;SDS011;9097;47.028;15.444;2023-02-04T18:06:33;1.27;;;0.40;;
17943;SDS011;9097;47.028;15.444;2023-02-04T18:09:37;0.57;;;0.33;;
17943;SDS011;9097;47.028;15.444;2023-02-04T18:12:40;0.40;;;0.40;;
17943;SDS011;9097;47.028;15.444;2023-02-04T18:15:49;0.93;;;0.40;;
17943;SDS011;9097;47.028;15.444;2023-02-04T18:18:54;1.03;;;0.60;;
17943;SDS011;9097;47.028;15.444;2023-02-04T18:21:58;0.97;;;0.60;;
17943;SDS011;9097;47.028;15.444;2023-02-04T18:25:01;0.67;;;0.30;;
17943;SDS011;9097;47.028;15.444;2023-02-04T18:28:14;1.60;;;0.97;;
17943;SDS011;9097;47.028;15.444;2023-02-04T18:31:31;0.93;;;0.70;;